createdAt,value
2022-12-16T00:02:20.969Z,64.90
2022-12-16T00:05:44.634Z,65.10
2022-12-16T00:09:06.983Z,65.10
2022-12-16T00:12:29.258Z,65.10
2022-12-16T00:15:51.740Z,65.00
2022-12-16T00:19:14.085Z,65.10
2022-12-16T00:22:36.333Z,65.20
2022-12-16T00:25:59.076Z,65.10
2022-12-16T00:29:21.392Z,64.80
2022-12-16T00:32:43.725Z,64.80
2022-12-16T00:36:06.348Z,64.60
2022-12-16T00:39:28.727Z,64.50
2022-12-16T00:42:51.305Z,64.40
2022-12-16T00:46:14.511Z,64.30
2022-12-16T00:49:37.016Z,64.30
2022-12-16T00:52:59.558Z,64.30
2022-12-16T00:56:21.840Z,64.00
2022-12-16T00:59:44.160Z,64.20
2022-12-16T01:03:06.812Z,64.30
2022-12-16T01:06:29.156Z,64.30
2022-12-16T01:09:51.438Z,64.60
2022-12-16T01:13:14.164Z,64.60
2022-12-16T01:16:36.514Z,64.10
2022-12-16T01:19:58.892Z,64.20
2022-12-16T01:23:21.179Z,64.30
2022-12-16T01:26:43.475Z,64.70
2022-12-16T01:30:06.431Z,64.30
2022-12-16T01:33:33.097Z,64.60
2022-12-16T01:36:55.832Z,64.10
2022-12-16T01:40:22.550Z,64.30
2022-12-16T01:43:45.797Z,64.10
2022-12-16T01:47:12.832Z,64.10
2022-12-16T01:50:36.684Z,64.00
2022-12-16T01:54:05.944Z,64.10
2022-12-16T01:57:42.723Z,63.90
2022-12-16T02:01:05.571Z,64.30
2022-12-16T02:04:27.890Z,64.30
2022-12-16T02:08:07.460Z,64.10
2022-12-16T02:11:53.932Z,64.60
2022-12-16T02:15:30.259Z,64.30
2022-12-16T02:19:22.904Z,64.50
2022-12-16T02:23:00.312Z,64.70
2022-12-16T02:26:25.408Z,64.60
2022-12-16T02:29:57.305Z,64.60
2022-12-16T02:33:37.758Z,64.60
2022-12-16T02:37:03.028Z,64.60
2022-12-16T02:40:34.335Z,64.70
2022-12-16T02:44:07.039Z,64.70
2022-12-16T02:47:31.208Z,64.50
2022-12-16T02:50:54.386Z,64.50
2022-12-16T02:54:18.897Z,64.50
2022-12-16T02:58:15.011Z,64.90
2022-12-16T03:01:54.756Z,64.50
2022-12-16T03:05:35.166Z,64.30
2022-12-16T03:09:00.650Z,64.30
2022-12-16T03:12:24.179Z,64.40
2022-12-16T03:15:49.488Z,64.30
2022-12-16T03:19:11.943Z,64.40
2022-12-16T03:22:38.005Z,64.20
2022-12-16T03:26:07.191Z,64.40
2022-12-16T03:29:29.485Z,64.40
2022-12-16T03:33:06.965Z,64.40
2022-12-16T03:36:32.864Z,64.50
2022-12-16T03:39:59.187Z,64.20
2022-12-16T03:43:21.793Z,64.20
2022-12-16T03:46:44.241Z,64.30
2022-12-16T03:50:07.225Z,64.20
2022-12-16T03:53:30.304Z,64.20
2022-12-16T03:56:52.909Z,64.20
2022-12-16T04:00:15.668Z,64.10
2022-12-16T04:03:38.419Z,64.10
2022-12-16T04:07:19.377Z,64.30
2022-12-16T04:11:00.280Z,64.50
2022-12-16T04:14:40.974Z,64.20
2022-12-16T04:18:22.134Z,64.30
2022-12-16T04:22:02.627Z,64.10
2022-12-16T04:25:32.356Z,64.20
2022-12-16T04:28:54.639Z,64.10
2022-12-16T04:32:17.300Z,64.40
2022-12-16T04:35:58.937Z,64.40
2022-12-16T04:39:47.475Z,64.20
2022-12-16T04:43:28.409Z,64.40
2022-12-16T04:47:09.241Z,64.30
2022-12-16T04:50:50.200Z,64.20
2022-12-16T04:54:31.036Z,64.50
2022-12-16T04:58:18.155Z,64.40
2022-12-16T05:01:58.998Z,64.40
2022-12-16T05:05:39.697Z,64.70
2022-12-16T05:09:21.505Z,64.40
2022-12-16T05:13:02.653Z,64.30
2022-12-16T05:16:43.774Z,63.90
2022-12-16T05:20:25.452Z,63.50
2022-12-16T05:24:07.351Z,63.20
2022-12-16T05:27:48.195Z,63.00
2022-12-16T05:31:28.890Z,62.90
2022-12-16T05:35:09.908Z,62.70
2022-12-16T05:38:50.665Z,62.60
2022-12-16T05:42:31.278Z,62.60
2022-12-16T05:46:12.090Z,62.50
2022-12-16T05:49:52.993Z,62.70
2022-12-16T05:53:34.206Z,62.70
2022-12-16T05:57:15.255Z,62.80
2022-12-16T06:00:56.576Z,62.80
2022-12-16T06:04:37.610Z,62.80
2022-12-16T06:08:18.242Z,63.00
2022-12-16T06:11:59.260Z,63.00
2022-12-16T06:15:40.167Z,63.00
2022-12-16T06:19:20.876Z,63.10
2022-12-16T06:23:01.782Z,63.20
2022-12-16T06:26:42.731Z,63.00
2022-12-16T06:30:23.932Z,62.50
2022-12-16T06:34:04.902Z,63.70
2022-12-16T06:37:45.877Z,67.00
2022-12-16T06:41:26.868Z,67.40
2022-12-16T06:45:07.626Z,70.10
2022-12-16T06:48:48.406Z,64.40
2022-12-16T06:52:29.577Z,63.40
2022-12-16T06:56:10.485Z,65.80
2022-12-16T06:59:51.232Z,66.20
2022-12-16T07:03:35.721Z,66.50
2022-12-16T07:07:16.975Z,67.70
2022-12-16T07:11:09.239Z,67.00
2022-12-16T07:14:56.738Z,65.70
2022-12-16T07:18:37.668Z,66.00
2022-12-16T07:22:18.424Z,67.00
2022-12-16T07:25:59.251Z,66.80
2022-12-16T07:29:40.247Z,67.00
2022-12-16T07:33:21.333Z,67.10
2022-12-16T07:37:02.487Z,67.30
2022-12-16T07:40:43.177Z,67.10
2022-12-16T07:44:23.977Z,66.20
2022-12-16T07:48:09.197Z,66.10
2022-12-16T07:51:50.243Z,67.90
2022-12-16T07:55:31.966Z,67.10
2022-12-16T07:59:13.546Z,67.10
2022-12-16T08:02:54.366Z,66.40
2022-12-16T08:06:40.328Z,67.10
2022-12-16T08:10:21.485Z,66.60
2022-12-16T08:14:02.246Z,66.60
2022-12-16T08:17:43.274Z,66.90
2022-12-16T08:21:23.965Z,66.50
2022-12-16T08:25:04.794Z,67.10
2022-12-16T08:29:27.248Z,65.80
2022-12-16T08:33:12.112Z,66.40
2022-12-16T08:36:59.006Z,66.80
2022-12-16T08:40:39.851Z,65.80
2022-12-16T08:44:20.638Z,65.70
2022-12-16T08:48:01.418Z,65.80
2022-12-16T08:51:42.669Z,65.50
2022-12-16T08:55:27.951Z,66.20
2022-12-16T08:59:10.500Z,67.40
2022-12-16T09:02:51.172Z,67.40
2022-12-16T09:06:35.657Z,66.90
2022-12-16T09:10:21.765Z,67.50
2022-12-16T09:14:02.543Z,66.80
2022-12-16T09:17:43.330Z,66.90
2022-12-16T09:21:26.619Z,67.10
2022-12-16T09:25:10.864Z,68.30
2022-12-16T09:28:51.603Z,68.40
2022-12-16T09:32:32.588Z,67.70
2022-12-16T09:36:13.332Z,67.30
2022-12-16T09:39:54.474Z,68.10
2022-12-16T09:43:42.599Z,68.60
2022-12-16T09:47:33.647Z,68.60
2022-12-16T09:51:17.425Z,68.30
2022-12-16T09:55:04.472Z,68.50
2022-12-16T09:58:54.423Z,69.20
2022-12-16T10:02:38.519Z,68.30
2022-12-16T10:06:28.785Z,70.10
2022-12-16T10:10:44.698Z,70.20
2022-12-16T10:14:33.492Z,69.20
2022-12-16T10:18:14.949Z,70.20
2022-12-16T10:22:09.057Z,69.80
2022-12-16T10:26:20.952Z,70.50
2022-12-16T10:30:04.889Z,70.20
2022-12-16T10:33:48.860Z,69.70
2022-12-16T10:37:36.581Z,69.70
2022-12-16T10:41:19.872Z,69.00
2022-12-16T10:45:16.954Z,69.30
2022-12-16T10:48:58.205Z,71.70
2022-12-16T10:52:38.983Z,72.00
2022-12-16T10:56:36.485Z,70.00
2022-12-16T11:00:39.696Z,71.20
2022-12-16T11:04:22.052Z,72.70
2022-12-16T11:08:02.760Z,73.50
2022-12-16T11:11:46.989Z,73.00
2022-12-16T11:15:41.672Z,73.40
2022-12-16T11:19:23.795Z,73.30
2022-12-16T11:23:06.356Z,71.70
2022-12-16T11:26:47.132Z,72.90
2022-12-16T11:30:41.902Z,72.10
2022-12-16T11:34:23.474Z,70.40
2022-12-16T11:38:06.651Z,70.20
2022-12-16T11:41:52.122Z,69.20
2022-12-16T11:45:37.316Z,69.60
2022-12-16T11:49:25.194Z,70.00
2022-12-16T11:53:15.384Z,70.30
2022-12-16T11:57:00.537Z,69.30
2022-12-16T12:00:41.410Z,69.80
2022-12-16T12:04:22.119Z,70.10
2022-12-16T12:08:20.053Z,71.20
2022-12-16T12:12:10.940Z,73.70
2022-12-16T12:16:11.833Z,73.10
2022-12-16T12:19:52.595Z,73.20
2022-12-16T12:23:40.861Z,74.00
2022-12-16T12:27:42.560Z,72.50
2022-12-16T12:32:03.674Z,70.90
2022-12-16T12:36:15.022Z,70.60
2022-12-16T12:40:05.768Z,69.70
2022-12-16T12:43:49.082Z,67.30
2022-12-16T12:47:31.369Z,65.50
2022-12-16T12:51:32.844Z,66.70
2022-12-16T12:55:19.722Z,67.40
2022-12-16T12:59:02.112Z,66.30
2022-12-16T13:02:47.687Z,67.80
2022-12-16T13:06:28.806Z,66.30
2022-12-16T13:10:31.752Z,63.00
2022-12-16T13:14:12.501Z,60.10
2022-12-16T13:18:38.019Z,59.50
2022-12-16T13:22:18.923Z,59.80
2022-12-16T13:26:11.938Z,59.80
2022-12-16T13:29:52.626Z,64.20
2022-12-16T13:33:46.704Z,68.00
2022-12-16T13:37:46.351Z,70.00
2022-12-16T13:41:49.329Z,70.40
2022-12-16T13:45:58.133Z,71.40
2022-12-16T13:50:07.910Z,71.10
2022-12-16T13:53:57.428Z,70.80
2022-12-16T13:57:42.296Z,71.10
2022-12-16T14:01:31.309Z,71.70
2022-12-16T14:05:12.997Z,70.80
2022-12-16T14:09:02.501Z,70.80
2022-12-16T14:12:49.415Z,70.60
2022-12-16T14:16:44.228Z,70.00
2022-12-16T14:20:42.918Z,70.10
2022-12-16T14:24:32.915Z,70.00
2022-12-16T14:28:13.948Z,70.00
2022-12-16T14:32:00.672Z,70.30
2022-12-16T14:35:46.316Z,69.80
2022-12-16T14:39:40.701Z,69.20
2022-12-16T14:43:21.938Z,70.00
2022-12-16T14:47:08.943Z,70.50
2022-12-16T14:50:49.922Z,70.50
2022-12-16T14:54:42.731Z,70.50
2022-12-16T14:58:26.768Z,70.00
2022-12-16T15:02:08.657Z,70.30
2022-12-16T15:05:52.409Z,70.20
2022-12-16T15:09:43.781Z,70.00
2022-12-16T15:13:24.686Z,70.40
2022-12-16T15:17:07.755Z,70.70
2022-12-16T15:20:51.844Z,70.50
2022-12-16T15:24:38.528Z,70.50
2022-12-16T15:28:19.586Z,69.70
2022-12-16T15:32:03.576Z,69.80
2022-12-16T15:35:44.745Z,69.60
2022-12-16T15:39:52.380Z,69.40
2022-12-16T15:43:45.360Z,69.40
2022-12-16T15:47:50.273Z,69.50
2022-12-16T15:51:45.256Z,69.40
2022-12-16T15:55:46.874Z,70.00
2022-12-16T15:59:42.302Z,69.40
2022-12-16T16:03:34.548Z,70.40
2022-12-16T16:07:15.565Z,70.50
2022-12-16T16:10:56.406Z,69.70
2022-12-16T16:14:37.062Z,69.80
2022-12-16T16:18:21.980Z,69.80
2022-12-16T16:22:03.227Z,69.50
2022-12-16T16:25:43.880Z,68.80
2022-12-16T16:29:25.060Z,68.90
2022-12-16T16:33:05.766Z,71.00
2022-12-16T16:36:46.605Z,70.70
2022-12-16T16:40:55.903Z,70.50
2022-12-16T16:44:36.761Z,69.70
2022-12-16T16:48:32.793Z,69.70
2022-12-16T16:52:13.445Z,69.30
2022-12-16T16:55:54.149Z,68.90
2022-12-16T16:59:34.920Z,68.80
2022-12-16T17:03:16.006Z,68.70
2022-12-16T17:07:10.745Z,68.90
2022-12-16T17:10:51.780Z,66.80
2022-12-16T17:14:34.111Z,68.40
2022-12-16T17:18:15.135Z,69.20
2022-12-16T17:21:55.984Z,68.90
2022-12-16T17:25:37.704Z,68.50
2022-12-16T17:29:24.278Z,70.60
2022-12-16T17:33:05.356Z,71.50
2022-12-16T17:36:47.415Z,70.50
2022-12-16T17:40:28.312Z,64.10
2022-12-16T17:44:11.492Z,69.90
2022-12-16T17:47:52.275Z,71.10
2022-12-16T17:51:32.987Z,70.60
2022-12-16T17:55:13.748Z,70.30
2022-12-16T17:58:56.676Z,70.80
2022-12-16T18:02:38.407Z,70.60
2022-12-16T18:06:19.147Z,70.10
2022-12-16T18:10:10.662Z,70.00
2022-12-16T18:13:51.216Z,70.10
2022-12-16T18:17:32.032Z,69.60
2022-12-16T18:21:13.144Z,69.90
2022-12-16T18:24:54.024Z,70.80
2022-12-16T18:28:35.083Z,70.60
2022-12-16T18:32:15.755Z,70.80
2022-12-16T18:35:56.434Z,71.10
2022-12-16T18:39:37.132Z,71.50
2022-12-16T18:43:18.034Z,70.00
2022-12-16T18:46:58.927Z,70.70
2022-12-16T18:50:39.712Z,71.10
2022-12-16T18:54:20.373Z,70.90
2022-12-16T18:58:01.165Z,70.70
2022-12-16T19:01:42.036Z,70.30
2022-12-16T19:05:23.188Z,70.20
2022-12-16T19:09:03.936Z,70.10
2022-12-16T19:12:44.921Z,70.60
2022-12-16T19:16:25.650Z,70.40
2022-12-16T19:20:06.763Z,71.00
2022-12-16T19:23:47.911Z,70.90
2022-12-16T19:27:28.600Z,71.30
2022-12-16T19:31:13.853Z,71.00
2022-12-16T19:34:55.008Z,71.10
2022-12-16T19:38:37.685Z,70.90
2022-12-16T19:42:18.425Z,70.60
2022-12-16T19:45:59.482Z,70.60
2022-12-16T19:53:41.040Z,69.90
2022-12-16T19:57:21.975Z,69.90
2022-12-16T20:01:02.571Z,69.60
2022-12-16T20:04:43.283Z,69.70
2022-12-16T20:08:25.126Z,69.60
2022-12-16T20:12:06.020Z,69.40
2022-12-16T20:15:47.571Z,69.20
2022-12-16T20:19:28.404Z,68.90
2022-12-16T20:23:09.199Z,69.20
2022-12-16T20:26:50.587Z,69.20
2022-12-16T20:30:31.171Z,68.70
2022-12-16T20:34:13.788Z,68.40
2022-12-16T20:37:54.563Z,68.60
2022-12-16T20:41:37.082Z,68.30
2022-12-16T20:45:17.933Z,68.40
2022-12-16T20:48:58.859Z,68.20
2022-12-16T20:52:39.710Z,68.10
2022-12-16T20:56:20.796Z,68.10
2022-12-16T21:00:01.753Z,68.00
2022-12-16T21:03:42.780Z,67.90
2022-12-16T21:07:23.759Z,68.00
2022-12-16T21:11:04.808Z,67.80
2022-12-16T21:14:45.851Z,67.70
2022-12-16T21:18:26.592Z,67.40
2022-12-16T21:22:07.632Z,67.20
2022-12-16T21:25:48.668Z,67.30
2022-12-16T21:29:29.686Z,67.20
2022-12-16T21:33:10.781Z,67.00
2022-12-16T21:37:02.068Z,67.00
2022-12-16T21:40:43.202Z,66.90
2022-12-16T21:44:31.580Z,66.50
2022-12-16T21:48:13.104Z,66.70
2022-12-16T21:51:56.208Z,66.40
2022-12-16T21:55:37.558Z,66.20
2022-12-16T21:59:18.115Z,66.00
2022-12-16T22:02:58.838Z,66.00
2022-12-16T22:06:44.222Z,66.20
2022-12-16T22:10:28.153Z,65.90
2022-12-16T22:14:08.740Z,65.80
2022-12-16T22:17:57.564Z,65.60
2022-12-16T22:21:39.156Z,65.40
2022-12-16T22:25:19.859Z,65.60
2022-12-16T22:29:00.797Z,65.60
2022-12-16T22:32:41.707Z,65.40
2022-12-16T22:36:24.357Z,65.40
2022-12-16T22:40:05.267Z,65.70
2022-12-16T22:43:47.998Z,65.50
2022-12-16T22:47:28.658Z,65.50
2022-12-16T22:51:09.472Z,65.60
2022-12-16T22:54:50.235Z,65.60
2022-12-16T22:58:31.520Z,65.30
2022-12-16T23:02:12.681Z,65.30
2022-12-16T23:05:53.377Z,65.00
2022-12-16T23:09:34.146Z,65.10
2022-12-16T23:13:14.942Z,64.90
2022-12-16T23:16:55.758Z,65.00
2022-12-16T23:20:37.160Z,64.30
2022-12-16T23:24:18.107Z,65.10
2022-12-16T23:27:59.072Z,64.70
2022-12-16T23:31:40.321Z,64.80
2022-12-16T23:35:21.039Z,65.00
2022-12-16T23:39:02.067Z,64.70
2022-12-16T23:42:43.069Z,65.00
2022-12-16T23:46:24.133Z,65.10
2022-12-16T23:50:05.346Z,64.60
2022-12-16T23:53:47.523Z,64.80
2022-12-16T23:57:28.286Z,65.80
